Time;durP1;ratioP1;P1;durP2;ratioP2;P2;SDS_P1;SDS_P2;PMS_P1;PMS_P2;Temp;Humidity;BMP_temperature;BMP_pressure;BME280_temperature;BME280_humidity;BME280_pressure;Samples;Min_cycle;Max_cycle;Signal;HPM_P1;HPM_P2
2024/01/16 00:02:20;;;;;;;21.73;6.75;;;;;;;;;;5014835;28;20280;-58
2024/01/16 00:04:45;;;;;;;17.25;4.07;;;;;;;;;;5016783;28;20025;-58
2024/01/16 00:07:11;;;;;;;16.20;3.78;;;;;;;;;;5015023;28;20484;-57
2024/01/16 00:09:36;;;;;;;16.10;4.47;;;;;;;;;;5014904;28;20028;-58
2024/01/16 00:12:04;;;;;;;15.23;3.53;;;;;;;;;;5015093;28;20060;-59
2024/01/16 00:14:29;;;;;;;16.13;4.22;;;;;;;;;;5014349;28;20284;-58
2024/01/16 00:16:54;;;;;;;15.70;4.00;;;;;;;;;;5014722;28;20075;-57
2024/01/16 00:19:19;;;;;;;14.00;4.03;;;;;;;;;;5017049;28;20022;-59
2024/01/16 00:21:47;;;;;;;14.93;3.77;;;;;;;;;;5015597;28;20359;-59
2024/01/16 00:24:16;;;;;;;15.70;3.70;;;;;;;;;;5016524;28;20740;-59
2024/01/16 00:26:41;;;;;;;13.88;3.80;;;;;;;;;;5014442;28;20018;-60
2024/01/16 00:29:06;;;;;;;12.90;3.30;;;;;;;;;;5014781;28;20073;-59
2024/01/16 00:31:31;;;;;;;12.13;3.60;;;;;;;;;;5015909;28;20028;-59
2024/01/16 00:33:57;;;;;;;10.87;3.33;;;;;;;;;;5015779;28;20030;-59
2024/01/16 00:36:22;;;;;;;14.82;3.63;;;;;;;;;;5013950;28;20267;-60
2024/01/16 00:38:47;;;;;;;13.13;3.15;;;;;;;;;;5013306;28;20026;-57
2024/01/16 00:41:14;;;;;;;15.60;3.45;;;;;;;;;;5016542;28;20009;-58
2024/01/16 00:43:39;;;;;;;11.25;3.13;;;;;;;;;;5015567;28;20045;-58
2024/01/16 00:46:04;;;;;;;12.02;3.50;;;;;;;;;;5014298;28;20052;-58
2024/01/16 00:48:30;;;;;;;11.40;3.33;;;;;;;;;;5014909;28;20030;-58
2024/01/16 00:50:55;;;;;;;13.57;3.70;;;;;;;;;;5015262;28;20112;-58
2024/01/16 00:53:20;;;;;;;16.10;3.70;;;;;;;;;;5013409;28;20780;-59
2024/01/16 00:55:45;;;;;;;11.50;3.37;;;;;;;;;;5016449;28;20276;-58
2024/01/16 00:58:10;;;;;;;15.57;3.63;;;;;;;;;;5014680;28;20609;-57
2024/01/16 01:00:37;;;;;;;11.63;3.30;;;;;;;;;;5012886;28;20276;-58
2024/01/16 01:03:03;;;;;;;12.27;3.15;;;;;;;;;;5012563;28;20125;-58
2024/01/16 01:05:28;;;;;;;15.20;3.53;;;;;;;;;;5015448;28;20089;-58
2024/01/16 01:07:54;;;;;;;13.43;3.30;;;;;;;;;;5011464;28;20082;-58
2024/01/16 01:10:20;;;;;;;11.38;2.97;;;;;;;;;;5011078;28;20263;-57
2024/01/16 01:12:45;;;;;;;15.90;3.17;;;;;;;;;;5013914;28;20025;-59
2024/01/16 01:15:10;;;;;;;13.43;3.83;;;;;;;;;;5014352;28;20344;-58
2024/01/16 01:17:35;;;;;;;12.25;2.85;;;;;;;;;;5015172;28;20272;-58
2024/01/16 01:20:01;;;;;;;14.02;3.70;;;;;;;;;;5015442;28;20049;-57
2024/01/16 01:22:26;;;;;;;14.50;3.80;;;;;;;;;;5014909;28;20053;-57
2024/01/16 01:24:51;;;;;;;14.15;3.60;;;;;;;;;;5015667;28;20096;-58
2024/01/16 01:27:17;;;;;;;16.37;3.40;;;;;;;;;;5013901;28;20832;-58
2024/01/16 01:29:42;;;;;;;14.43;3.80;;;;;;;;;;5013922;28;20376;-60
2024/01/16 01:32:07;;;;;;;13.57;3.37;;;;;;;;;;5012120;28;20985;-58
2024/01/16 01:34:32;;;;;;;16.00;4.10;;;;;;;;;;5014211;28;20371;-58
2024/01/16 01:36:58;;;;;;;17.05;3.90;;;;;;;;;;5012828;28;20028;-57
2024/01/16 01:39:23;;;;;;;13.23;3.63;;;;;;;;;;5012570;28;20017;-57
2024/01/16 01:41:48;;;;;;;14.82;3.58;;;;;;;;;;5010735;28;20482;-58
2024/01/16 01:44:15;;;;;;;14.87;3.50;;;;;;;;;;5017963;28;20022;-58
2024/01/16 01:46:41;;;;;;;14.10;3.38;;;;;;;;;;5017071;28;20260;-60
2024/01/16 01:49:06;;;;;;;14.80;3.45;;;;;;;;;;5015295;28;20013;-57
2024/01/16 01:51:32;;;;;;;15.13;3.55;;;;;;;;;;5017898;28;20474;-58
2024/01/16 01:53:58;;;;;;;11.35;3.25;;;;;;;;;;5017020;28;20021;-57
2024/01/16 01:56:23;;;;;;;12.88;3.72;;;;;;;;;;5019183;28;20033;-58
2024/01/16 01:58:50;;;;;;;16.63;3.63;;;;;;;;;;5018906;28;20025;-58
2024/01/16 02:01:17;;;;;;;14.65;3.30;;;;;;;;;;5016383;28;20495;-59
2024/01/16 02:03:43;;;;;;;12.98;3.20;;;;;;;;;;5015025;28;20025;-58
2024/01/16 02:06:09;;;;;;;15.85;3.53;;;;;;;;;;5015912;28;20037;-59
2024/01/16 02:08:35;;;;;;;16.88;3.58;;;;;;;;;;5017807;28;20030;-59
2024/01/16 02:11:00;;;;;;;15.55;3.38;;;;;;;;;;5017910;28;20018;-58
2024/01/16 02:13:25;;;;;;;10.97;3.10;;;;;;;;;;5016257;28;20026;-59
2024/01/16 02:15:51;;;;;;;16.35;3.92;;;;;;;;;;5016540;28;20620;-58
2024/01/16 02:18:16;;;;;;;15.10;3.00;;;;;;;;;;5017801;28;20370;-58
2024/01/16 02:20:42;;;;;;;14.05;3.05;;;;;;;;;;5015525;28;20041;-57
2024/01/16 02:23:07;;;;;;;11.13;3.03;;;;;;;;;;5016937;28;20029;-58
2024/01/16 02:25:32;;;;;;;11.13;3.43;;;;;;;;;;5014197;28;20022;-57
2024/01/16 02:27:57;;;;;;;12.20;3.13;;;;;;;;;;5014797;28;20264;-58
2024/01/16 02:30:22;;;;;;;8.50;2.53;;;;;;;;;;5015499;28;20030;-58
2024/01/16 02:32:47;;;;;;;12.05;3.05;;;;;;;;;;5016687;28;20346;-58
2024/01/16 02:35:13;;;;;;;11.77;2.67;;;;;;;;;;5015386;28;20041;-58
2024/01/16 02:37:38;;;;;;;11.93;2.80;;;;;;;;;;5015576;28;20260;-58
2024/01/16 02:40:06;;;;;;;10.95;2.63;;;;;;;;;;5015311;28;20048;-57
2024/01/16 02:42:31;;;;;;;13.82;2.60;;;;;;;;;;5015491;28;20022;-58
2024/01/16 02:44:56;;;;;;;14.93;3.30;;;;;;;;;;5015598;28;20151;-58
2024/01/16 02:47:21;;;;;;;10.70;2.73;;;;;;;;;;5015367;28;20056;-58
2024/01/16 02:49:47;;;;;;;5.57;2.10;;;;;;;;;;5016977;28;20277;-58
2024/01/16 02:52:13;;;;;;;10.45;2.40;;;;;;;;;;5016153;28;20387;-58
2024/01/16 02:54:38;;;;;;;7.85;2.35;;;;;;;;;;5012671;28;20057;-57
2024/01/16 02:57:03;;;;;;;10.82;2.40;;;;;;;;;;5016370;28;20026;-58
2024/01/16 02:59:30;;;;;;;12.02;2.42;;;;;;;;;;5015009;28;20022;-58
2024/01/16 03:01:55;;;;;;;7.38;2.35;;;;;;;;;;5015362;28;20014;-58
2024/01/16 03:04:20;;;;;;;8.80;2.40;;;;;;;;;;5017390;28;20091;-58
2024/01/16 03:06:46;;;;;;;8.23;2.13;;;;;;;;;;5015619;28;20453;-58
2024/01/16 03:09:12;;;;;;;12.30;2.50;;;;;;;;;;5015554;28;20360;-58
2024/01/16 03:11:37;;;;;;;13.23;2.83;;;;;;;;;;5013293;28;20292;-59
2024/01/16 03:14:03;;;;;;;9.80;2.40;;;;;;;;;;5015735;28;20077;-58
2024/01/16 03:16:28;;;;;;;10.02;2.85;;;;;;;;;;5015228;28;20022;-58
2024/01/16 03:18:53;;;;;;;11.75;2.70;;;;;;;;;;5015960;28;20092;-57
2024/01/16 03:21:18;;;;;;;14.40;3.00;;;;;;;;;;5015105;28;20513;-58
2024/01/16 03:23:44;;;;;;;11.13;2.88;;;;;;;;;;5013375;28;20075;-57
2024/01/16 03:26:13;;;;;;;12.27;2.90;;;;;;;;;;5015189;28;20045;-58
2024/01/16 03:28:38;;;;;;;8.73;2.92;;;;;;;;;;5014502;28;20029;-58
2024/01/16 03:31:03;;;;;;;15.60;3.17;;;;;;;;;;5015790;28;20013;-58
2024/01/16 03:33:29;;;;;;;13.93;3.15;;;;;;;;;;5018165;28;20560;-58
2024/01/16 03:35:54;;;;;;;11.57;3.20;;;;;;;;;;5016180;28;20071;-58
2024/01/16 03:38:19;;;;;;;10.53;3.33;;;;;;;;;;5013610;28;20272;-56
2024/01/16 03:40:44;;;;;;;10.98;2.70;;;;;;;;;;5015315;28;20288;-57
2024/01/16 03:43:09;;;;;;;8.82;2.20;;;;;;;;;;5012633;28;20508;-57
2024/01/16 03:45:35;;;;;;;11.63;2.60;;;;;;;;;;5016930;28;20633;-59
2024/01/16 03:48:02;;;;;;;14.93;2.97;;;;;;;;;;5015946;28;20473;-59
2024/01/16 03:50:28;;;;;;;12.38;2.60;;;;;;;;;;5015302;28;20313;-58
2024/01/16 03:52:53;;;;;;;10.57;2.75;;;;;;;;;;5014207;28;20029;-58
2024/01/16 03:55:18;;;;;;;11.07;2.28;;;;;;;;;;5014635;28;20099;-59
2024/01/16 03:57:43;;;;;;;7.70;2.30;;;;;;;;;;5015250;28;20033;-60
2024/01/16 04:00:12;;;;;;;8.27;2.40;;;;;;;;;;5014634;28;20297;-58
2024/01/16 04:02:38;;;;;;;11.25;2.28;;;;;;;;;;5015266;28;20263;-58
2024/01/16 04:05:03;;;;;;;11.23;2.72;;;;;;;;;;5014010;28;20030;-58
2024/01/16 04:07:28;;;;;;;12.75;2.70;;;;;;;;;;5014368;28;20377;-58
2024/01/16 04:09:53;;;;;;;11.57;2.60;;;;;;;;;;5016477;28;20037;-58
2024/01/16 04:12:19;;;;;;;11.05;2.75;;;;;;;;;;5014763;28;20818;-58
2024/01/16 04:14:44;;;;;;;9.90;2.87;;;;;;;;;;5014829;28;20512;-59
2024/01/16 04:17:09;;;;;;;9.63;2.80;;;;;;;;;;5014774;28;20261;-58
2024/01/16 04:19:34;;;;;;;14.10;3.13;;;;;;;;;;5014705;28;20763;-58
2024/01/16 04:22:00;;;;;;;14.65;3.50;;;;;;;;;;5012164;28;20028;-59
2024/01/16 04:24:26;;;;;;;13.15;3.33;;;;;;;;;;5017076;28;20030;-58
2024/01/16 04:26:51;;;;;;;17.50;4.28;;;;;;;;;;5013331;28;20025;-59
2024/01/16 04:29:16;;;;;;;16.27;4.27;;;;;;;;;;5013941;28;20469;-59
2024/01/16 04:31:41;;;;;;;20.73;5.40;;;;;;;;;;5013792;28;20272;-58
2024/01/16 04:34:07;;;;;;;19.63;5.05;;;;;;;;;;5015236;28;20658;-58
2024/01/16 04:36:32;;;;;;;18.95;5.93;;;;;;;;;;5013888;28;20022;-58
2024/01/16 04:38:57;;;;;;;19.43;5.57;;;;;;;;;;5015092;28;20021;-59
2024/01/16 04:41:22;;;;;;;20.00;5.70;;;;;;;;;;5011859;28;20292;-61
2024/01/16 04:43:49;;;;;;;21.20;6.17;;;;;;;;;;5014903;28;20735;-59
2024/01/16 04:46:15;;;;;;;19.90;5.65;;;;;;;;;;5015078;28;20347;-59
2024/01/16 04:48:40;;;;;;;23.77;7.15;;;;;;;;;;5016257;28;20577;-59
2024/01/16 04:51:05;;;;;;;22.57;6.77;;;;;;;;;;5013861;28;21287;-58
2024/01/16 04:53:30;;;;;;;23.55;7.40;;;;;;;;;;5011752;28;20288;-59
2024/01/16 04:55:55;;;;;;;22.13;7.10;;;;;;;;;;5014140;28;20237;-59
2024/01/16 04:58:21;;;;;;;25.33;7.30;;;;;;;;;;5014875;28;20288;-59
2024/01/16 05:00:46;;;;;;;21.02;6.85;;;;;;;;;;5011690;28;20448;-59
2024/01/16 05:03:11;;;;;;;23.08;7.35;;;;;;;;;;5013425;28;20469;-59
2024/01/16 05:05:36;;;;;;;21.17;6.75;;;;;;;;;;5013942;28;20022;-59
2024/01/16 05:08:02;;;;;;;22.43;7.23;;;;;;;;;;5012327;28;20021;-59
2024/01/16 05:10:27;;;;;;;21.98;7.40;;;;;;;;;;5013182;28;20725;-58
2024/01/16 05:12:53;;;;;;;26.10;7.63;;;;;;;;;;5014166;28;20079;-58
2024/01/16 05:15:18;;;;;;;20.17;7.00;;;;;;;;;;5013265;28;20725;-58
2024/01/16 05:17:43;;;;;;;24.97;7.17;;;;;;;;;;5011307;28;20256;-58
2024/01/16 05:20:08;;;;;;;21.87;7.10;;;;;;;;;;5013520;28;21777;-58
2024/01/16 05:22:34;;;;;;;23.83;7.10;;;;;;;;;;5013305;28;20261;-58
2024/01/16 05:25:00;;;;;;;25.60;7.78;;;;;;;;;;5014761;28;20083;-58
2024/01/16 05:27:25;;;;;;;21.23;7.15;;;;;;;;;;5011733;28;20022;-58
2024/01/16 05:29:51;;;;;;;23.13;7.32;;;;;;;;;;5013863;28;20026;-58
2024/01/16 05:32:16;;;;;;;23.30;7.45;;;;;;;;;;5013058;28;20033;-58
2024/01/16 05:34:41;;;;;;;24.48;7.22;;;;;;;;;;5014417;28;20081;-58
2024/01/16 05:37:06;;;;;;;25.73;8.37;;;;;;;;;;5011513;28;20033;-58
2024/01/16 05:39:32;;;;;;;20.67;7.57;;;;;;;;;;5013697;28;20333;-58
2024/01/16 05:41:57;;;;;;;21.33;8.15;;;;;;;;;;5011022;28;20271;-59
2024/01/16 05:44:22;;;;;;;22.30;7.28;;;;;;;;;;5014098;28;20040;-59
2024/01/16 05:46:47;;;;;;;23.60;7.33;;;;;;;;;;5012681;28;20113;-59
2024/01/16 05:49:12;;;;;;;23.23;7.57;;;;;;;;;;5014634;28;20285;-57
2024/01/16 05:51:38;;;;;;;22.77;7.47;;;;;;;;;;5014414;28;20275;-57
2024/01/16 05:54:03;;;;;;;21.07;7.83;;;;;;;;;;5012680;28;20380;-59
2024/01/16 05:56:28;;;;;;;21.08;7.50;;;;;;;;;;5013987;28;20268;-58
2024/01/16 05:58:53;;;;;;;22.67;7.30;;;;;;;;;;5013752;28;20097;-59
2024/01/16 06:01:19;;;;;;;22.93;7.43;;;;;;;;;;5013776;28;20026;-58
2024/01/16 06:03:46;;;;;;;21.17;7.25;;;;;;;;;;5014463;28;20283;-58
2024/01/16 06:06:11;;;;;;;22.33;7.47;;;;;;;;;;5014160;28;20018;-58
2024/01/16 06:08:36;;;;;;;20.23;7.63;;;;;;;;;;5014450;28;20055;-57
2024/01/16 06:11:02;;;;;;;21.40;7.20;;;;;;;;;;5012532;28;20060;-57
2024/01/16 06:13:27;;;;;;;21.40;7.50;;;;;;;;;;5013159;28;20787;-58
2024/01/16 06:15:52;;;;;;;22.88;7.35;;;;;;;;;;5012794;28;20361;-59
2024/01/16 06:18:17;;;;;;;20.03;6.67;;;;;;;;;;5014067;28;20108;-58
2024/01/16 06:20:43;;;;;;;21.02;7.07;;;;;;;;;;5011236;28;20334;-57
2024/01/16 06:23:08;;;;;;;21.33;7.03;;;;;;;;;;5012283;28;20056;-57
2024/01/16 06:25:33;;;;;;;25.13;7.38;;;;;;;;;;5012628;28;20389;-58
2024/01/16 06:27:58;;;;;;;21.60;7.18;;;;;;;;;;5013360;28;20575;-59
2024/01/16 06:30:24;;;;;;;20.90;7.63;;;;;;;;;;5013598;28;20073;-59
2024/01/16 06:32:49;;;;;;;22.75;6.63;;;;;;;;;;5023960;28;20075;-59
2024/01/16 06:35:15;;;;;;;21.35;7.03;;;;;;;;;;5020838;28;20064;-58
2024/01/16 06:37:41;;;;;;;23.23;7.05;;;;;;;;;;5023613;28;20458;-59
2024/01/16 06:40:06;;;;;;;22.35;6.70;;;;;;;;;;5016159;28;20365;-58
2024/01/16 06:42:31;;;;;;;19.38;6.07;;;;;;;;;;5030065;28;20116;-58
2024/01/16 06:44:56;;;;;;;20.52;6.35;;;;;;;;;;5017296;28;20432;-56
2024/01/16 06:47:23;;;;;;;23.17;7.00;;;;;;;;;;5016394;28;20445;-57
2024/01/16 06:49:48;;;;;;;19.90;6.05;;;;;;;;;;5016090;28;20351;-58
2024/01/16 06:52:14;;;;;;;19.95;6.57;;;;;;;;;;5011726;28;20029;-61
2024/01/16 06:54:39;;;;;;;19.88;6.13;;;;;;;;;;5016304;28;20025;-58
2024/01/16 06:57:05;;;;;;;19.70;6.22;;;;;;;;;;5013575;28;21251;-59
2024/01/16 06:59:30;;;;;;;21.38;7.03;;;;;;;;;;5015505;28;20405;-60
2024/01/16 07:01:55;;;;;;;21.40;6.77;;;;;;;;;;5015146;28;20393;-58
2024/01/16 07:04:20;;;;;;;21.90;6.47;;;;;;;;;;5014337;28;20264;-58
2024/01/16 07:06:46;;;;;;;17.93;5.23;;;;;;;;;;5015132;28;20782;-58
2024/01/16 07:09:11;;;;;;;23.13;6.35;;;;;;;;;;5014663;28;20272;-60
2024/01/16 07:11:38;;;;;;;19.95;5.97;;;;;;;;;;5014213;28;20091;-57
2024/01/16 07:14:03;;;;;;;18.60;5.57;;;;;;;;;;5015677;28;20169;-58
2024/01/16 07:16:28;;;;;;;20.40;5.53;;;;;;;;;;5015250;28;20496;-57
2024/01/16 07:18:55;;;;;;;18.23;5.30;;;;;;;;;;5016004;28;20029;-59
2024/01/16 07:21:20;;;;;;;20.70;5.82;;;;;;;;;;5015084;28;20827;-58
2024/01/16 07:23:46;;;;;;;17.90;5.30;;;;;;;;;;5016488;28;20029;-59
2024/01/16 07:26:11;;;;;;;19.67;5.63;;;;;;;;;;5017027;28;20026;-59
2024/01/16 07:28:36;;;;;;;21.45;5.68;;;;;;;;;;5019859;28;20022;-59
2024/01/16 07:31:01;;;;;;;21.07;5.50;;;;;;;;;;5025802;28;20025;-59
2024/01/16 07:33:27;;;;;;;20.40;5.50;;;;;;;;;;5018212;28;20296;-59
2024/01/16 07:35:52;;;;;;;19.27;5.60;;;;;;;;;;5020169;28;20347;-59
2024/01/16 07:38:17;;;;;;;18.67;5.25;;;;;;;;;;5014545;28;20276;-60
2024/01/16 07:40:42;;;;;;;19.17;5.83;;;;;;;;;;5015880;28;21565;-60
2024/01/16 07:43:08;;;;;;;17.85;5.55;;;;;;;;;;5016175;28;20292;-59
2024/01/16 07:45:33;;;;;;;19.45;4.88;;;;;;;;;;5015409;28;20175;-57
2024/01/16 07:47:58;;;;;;;19.77;5.10;;;;;;;;;;5015693;28;20385;-59
2024/01/16 07:50:23;;;;;;;17.97;5.40;;;;;;;;;;5014959;28;20401;-58
2024/01/16 07:52:50;;;;;;;16.77;5.35;;;;;;;;;;5014974;28;20312;-58
2024/01/16 07:55:18;;;;;;;18.35;5.30;;;;;;;;;;5014379;28;20484;-59
2024/01/16 07:57:43;;;;;;;21.63;6.90;;;;;;;;;;5016328;28;20463;-58
2024/01/16 08:00:11;;;;;;;20.60;6.45;;;;;;;;;;5012929;28;20453;-59
2024/01/16 08:02:37;;;;;;;19.45;5.90;;;;;;;;;;5016310;28;20065;-59
2024/01/16 08:05:02;;;;;;;17.70;4.90;;;;;;;;;;5014037;28;20041;-58
2024/01/16 08:07:28;;;;;;;24.13;6.68;;;;;;;;;;5018343;28;20175;-59
2024/01/16 08:09:53;;;;;;;21.92;6.18;;;;;;;;;;5012082;28;20022;-59
2024/01/16 08:12:18;;;;;;;27.42;8.00;;;;;;;;;;5022689;28;20092;-59
2024/01/16 08:14:44;;;;;;;21.13;6.97;;;;;;;;;;5015281;28;20053;-61
2024/01/16 08:17:09;;;;;;;20.38;5.95;;;;;;;;;;5012788;28;20033;-60
2024/01/16 08:19:35;;;;;;;18.58;5.15;;;;;;;;;;5012267;28;20507;-58
2024/01/16 08:22:02;;;;;;;21.48;6.50;;;;;;;;;;5013066;28;20022;-59
2024/01/16 08:24:27;;;;;;;19.20;5.07;;;;;;;;;;5015253;28;20116;-60
2024/01/16 08:26:52;;;;;;;17.15;4.68;;;;;;;;;;5010100;28;20038;-59
2024/01/16 08:29:18;;;;;;;16.67;4.88;;;;;;;;;;5011284;28;20100;-59
2024/01/16 08:31:43;;;;;;;19.65;5.28;;;;;;;;;;5010602;28;20061;-59
2024/01/16 08:34:08;;;;;;;18.10;5.03;;;;;;;;;;5012594;28;20829;-60
2024/01/16 08:36:33;;;;;;;18.27;4.20;;;;;;;;;;5010566;28;20488;-60
2024/01/16 08:38:58;;;;;;;17.20;4.90;;;;;;;;;;5014401;28;21584;-59
2024/01/16 08:41:24;;;;;;;16.23;5.10;;;;;;;;;;5017333;28;20275;-59
2024/01/16 08:43:49;;;;;;;17.50;5.10;;;;;;;;;;5023636;28;20026;-58
2024/01/16 08:46:15;;;;;;;17.10;4.97;;;;;;;;;;5017528;28;20618;-59
2024/01/16 08:48:41;;;;;;;17.40;4.50;;;;;;;;;;5026206;28;20026;-60
2024/01/16 08:51:07;;;;;;;17.80;5.72;;;;;;;;;;5013613;28;20018;-58
2024/01/16 08:53:34;;;;;;;14.73;4.63;;;;;;;;;;5022968;28;20074;-60
2024/01/16 08:55:59;;;;;;;18.63;6.43;;;;;;;;;;5011366;28;20083;-60
2024/01/16 08:58:24;;;;;;;16.75;5.10;;;;;;;;;;5016132;28;20028;-60
2024/01/16 09:00:49;;;;;;;20.13;4.70;;;;;;;;;;5011325;28;20049;-60
2024/01/16 09:03:15;;;;;;;17.20;5.20;;;;;;;;;;5009503;28;20390;-59
2024/01/16 09:05:40;;;;;;;15.33;3.90;;;;;;;;;;5019824;28;20706;-59
2024/01/16 09:08:05;;;;;;;16.70;4.73;;;;;;;;;;5018653;28;20276;-60
2024/01/16 09:10:30;;;;;;;14.65;4.45;;;;;;;;;;5012958;28;20264;-60
2024/01/16 09:12:55;;;;;;;17.40;4.40;;;;;;;;;;5010819;28;20038;-59
2024/01/16 09:15:21;;;;;;;16.37;4.57;;;;;;;;;;5012105;28;20364;-60
2024/01/16 09:17:46;;;;;;;21.97;6.07;;;;;;;;;;5011936;28;20352;-60
2024/01/16 09:20:12;;;;;;;19.92;5.25;;;;;;;;;;5010834;28;20307;-60
2024/01/16 09:22:37;;;;;;;14.80;4.13;;;;;;;;;;5009997;28;20033;-58
2024/01/16 09:25:02;;;;;;;18.35;4.95;;;;;;;;;;5008827;28;20040;-58
2024/01/16 09:27:27;;;;;;;17.15;4.45;;;;;;;;;;5010015;28;20025;-60
2024/01/16 09:29:52;;;;;;;16.88;4.32;;;;;;;;;;5008924;28;20454;-60
2024/01/16 09:32:18;;;;;;;15.57;3.87;;;;;;;;;;5010396;28;20033;-60
2024/01/16 09:34:44;;;;;;;18.70;4.72;;;;;;;;;;5011728;28;20252;-59
2024/01/16 09:37:09;;;;;;;14.60;4.23;;;;;;;;;;5011025;28;20446;-59
2024/01/16 09:39:37;;;;;;;16.93;4.50;;;;;;;;;;5012628;28;20268;-59
2024/01/16 09:42:03;;;;;;;16.77;4.75;;;;;;;;;;5011644;28;20265;-60
2024/01/16 09:44:28;;;;;;;14.90;4.40;;;;;;;;;;5012486;28;20092;-59
2024/01/16 09:46:54;;;;;;;16.17;4.68;;;;;;;;;;5010178;28;20025;-58
2024/01/16 09:49:19;;;;;;;20.27;4.63;;;;;;;;;;5013704;28;20024;-59
2024/01/16 09:51:45;;;;;;;17.80;4.77;;;;;;;;;;5012426;28;20018;-59
2024/01/16 09:54:10;;;;;;;16.70;4.00;;;;;;;;;;5008423;28;20289;-59
2024/01/16 09:56:40;;;;;;;16.55;4.47;;;;;;;;;;5008095;28;20030;-59
2024/01/16 09:59:06;;;;;;;15.40;4.10;;;;;;;;;;5010085;28;20021;-60
2024/01/16 10:01:32;;;;;;;13.30;4.18;;;;;;;;;;5010843;28;20023;-59
2024/01/16 10:03:58;;;;;;;13.85;4.45;;;;;;;;;;5011187;28;20030;-60
2024/01/16 10:06:24;;;;;;;14.88;4.40;;;;;;;;;;5014534;28;20021;-59
2024/01/16 10:08:49;;;;;;;16.50;4.05;;;;;;;;;;5014579;28;20014;-59
2024/01/16 10:11:14;;;;;;;21.38;6.15;;;;;;;;;;5013152;28;20032;-59
2024/01/16 10:13:41;;;;;;;21.55;5.90;;;;;;;;;;5014948;28;20030;-59
2024/01/16 10:16:06;;;;;;;19.77;6.20;;;;;;;;;;5015461;28;20026;-61
2024/01/16 10:18:32;;;;;;;19.60;6.22;;;;;;;;;;5014745;28;20028;-59
2024/01/16 10:20:57;;;;;;;19.08;5.22;;;;;;;;;;5013096;28;20155;-61
2024/01/16 10:23:22;;;;;;;20.60;5.23;;;;;;;;;;5015327;28;20017;-58
2024/01/16 10:26:04;;;;;;;18.27;5.07;;;;;;;;;;5013633;28;20703;-60
2024/01/16 10:28:29;;;;;;;15.50;4.28;;;;;;;;;;5015295;28;20513;-60
2024/01/16 10:31:01;;;;;;;29.10;6.70;;;;;;;;;;5012100;28;20052;-60
2024/01/16 10:33:27;;;;;;;20.23;5.80;;;;;;;;;;5011853;28;20379;-60
2024/01/16 10:36:06;;;;;;;27.65;8.45;;;;;;;;;;5011874;28;20022;-61
2024/01/16 10:38:32;;;;;;;20.20;5.78;;;;;;;;;;5012427;28;20105;-60
2024/01/16 10:41:04;;;;;;;25.60;7.95;;;;;;;;;;5010167;28;20014;-59
2024/01/16 10:43:29;;;;;;;19.38;5.50;;;;;;;;;;5013046;28;20022;-60
2024/01/16 10:46:06;;;;;;;20.17;5.37;;;;;;;;;;5014170;28;20426;-61
2024/01/16 10:48:37;;;;;;;34.20;10.48;;;;;;;;;;5012327;28;20276;-60
2024/01/16 10:51:05;;;;;;;22.00;6.07;;;;;;;;;;5016541;28;20033;-60
2024/01/16 10:53:32;;;;;;;18.80;5.78;;;;;;;;;;5012995;28;20038;-60
2024/01/16 10:55:59;;;;;;;24.90;8.00;;;;;;;;;;5014524;28;20025;-60
2024/01/16 10:58:25;;;;;;;20.20;6.13;;;;;;;;;;5013811;28;20118;-61
2024/01/16 11:00:52;;;;;;;30.10;10.70;;;;;;;;;;5012224;28;21223;-59
2024/01/16 11:03:30;;;;;;;22.67;7.28;;;;;;;;;;5013473;28;20017;-58
2024/01/16 11:05:57;;;;;;;23.10;6.90;;;;;;;;;;5011827;28;20024;-60
2024/01/16 11:08:27;;;;;;;17.25;5.38;;;;;;;;;;5013256;28;21229;-60
2024/01/16 11:10:52;;;;;;;18.75;5.32;;;;;;;;;;5012948;28;20022;-59
2024/01/16 11:13:18;;;;;;;16.50;5.05;;;;;;;;;;5019175;28;20453;-60
2024/01/16 11:15:45;;;;;;;18.80;5.72;;;;;;;;;;5018034;28;20061;-59
2024/01/16 11:18:13;;;;;;;16.75;5.20;;;;;;;;;;5016030;28;20362;-59
2024/01/16 11:20:40;;;;;;;15.85;4.93;;;;;;;;;;5020109;28;20030;-59
2024/01/16 11:23:05;;;;;;;16.33;5.03;;;;;;;;;;5016110;28;20022;-60
2024/01/16 11:25:32;;;;;;;16.92;5.03;;;;;;;;;;5018674;28;20022;-59
2024/01/16 11:28:07;;;;;;;16.48;4.93;;;;;;;;;;5030649;28;20026;-60
2024/01/16 11:30:32;;;;;;;16.15;4.72;;;;;;;;;;5024459;28;20025;-60
2024/01/16 11:32:58;;;;;;;17.42;4.63;;;;;;;;;;5019279;28;20236;-59
2024/01/16 11:35:33;;;;;;;14.27;4.38;;;;;;;;;;5015813;28;20020;-59
2024/01/16 11:38:18;;;;;;;16.67;4.60;;;;;;;;;;5027550;28;20108;-60
2024/01/16 11:40:44;;;;;;;16.75;5.15;;;;;;;;;;5021668;28;20029;-58
2024/01/16 11:43:28;;;;;;;21.75;5.82;;;;;;;;;;5024929;28;20038;-59
2024/01/16 11:45:53;;;;;;;18.63;4.90;;;;;;;;;;5024911;28;20022;-60
2024/01/16 11:48:19;;;;;;;16.27;4.65;;;;;;;;;;5023200;28;20167;-60
2024/01/16 11:50:45;;;;;;;19.55;5.72;;;;;;;;;;5027374;28;20402;-59
2024/01/16 11:53:10;;;;;;;18.92;5.00;;;;;;;;;;5020066;28;20061;-59
2024/01/16 11:55:43;;;;;;;16.95;4.63;;;;;;;;;;5011692;28;20028;-59
2024/01/16 11:58:27;;;;;;;17.42;4.95;;;;;;;;;;5018650;28;20044;-59
2024/01/16 12:00:53;;;;;;;16.85;4.75;;;;;;;;;;5019172;28;20033;-59
2024/01/16 12:03:20;;;;;;;13.57;3.92;;;;;;;;;;5017550;28;20030;-60
2024/01/16 12:05:55;;;;;;;15.43;4.03;;;;;;;;;;5030446;28;20411;-60
2024/01/16 12:08:21;;;;;;;15.90;4.32;;;;;;;;;;5023691;28;20047;-61
2024/01/16 12:10:48;;;;;;;13.60;4.10;;;;;;;;;;5015201;28;20444;-59
2024/01/16 12:13:13;;;;;;;15.15;4.30;;;;;;;;;;5015135;28;20053;-59
2024/01/16 12:15:38;;;;;;;16.67;4.38;;;;;;;;;;5030390;28;20073;-60
2024/01/16 12:18:03;;;;;;;14.43;4.27;;;;;;;;;;5030998;28;20053;-60
2024/01/16 12:20:33;;;;;;;18.88;4.47;;;;;;;;;;5030406;28;20352;-60
2024/01/16 12:23:05;;;;;;;14.60;4.30;;;;;;;;;;5030464;28;20029;-60
2024/01/16 12:25:32;;;;;;;17.58;4.50;;;;;;;;;;5030464;28;20025;-61
2024/01/16 12:27:58;;;;;;;15.02;4.40;;;;;;;;;;5029185;28;20072;-61
2024/01/16 12:30:24;;;;;;;19.35;5.22;;;;;;;;;;5029233;28;20018;-60
2024/01/16 12:32:49;;;;;;;18.42;4.95;;;;;;;;;;5026252;28;20111;-61
2024/01/16 12:35:24;;;;;;;13.82;4.13;;;;;;;;;;5020371;28;20033;-60
2024/01/16 12:37:59;;;;;;;13.80;4.00;;;;;;;;;;5019371;28;20033;-60
2024/01/16 12:40:25;;;;;;;16.17;4.07;;;;;;;;;;5018877;28;20075;-60
2024/01/16 12:42:50;;;;;;;16.90;4.65;;;;;;;;;;5023494;28;20116;-60
2024/01/16 12:45:16;;;;;;;16.50;4.53;;;;;;;;;;5022602;28;20060;-60
2024/01/16 12:47:42;;;;;;;16.98;4.22;;;;;;;;;;5026984;28;20033;-59
2024/01/16 12:50:07;;;;;;;18.42;4.47;;;;;;;;;;5017065;28;20022;-60
2024/01/16 12:52:33;;;;;;;17.55;4.30;;;;;;;;;;5028948;28;20405;-60
2024/01/16 12:55:00;;;;;;;19.38;4.50;;;;;;;;;;5020403;28;20036;-59
2024/01/16 12:57:25;;;;;;;14.35;3.85;;;;;;;;;;5023395;28;20096;-59
2024/01/16 12:59:51;;;;;;;15.23;4.20;;;;;;;;;;5022313;28;20116;-60
2024/01/16 13:02:23;;;;;;;13.73;3.70;;;;;;;;;;5014239;28;20265;-60
2024/01/16 13:04:56;;;;;;;16.88;4.20;;;;;;;;;;5014494;28;20029;-59
2024/01/16 13:07:21;;;;;;;14.57;4.30;;;;;;;;;;5016359;28;20605;-60
2024/01/16 13:09:47;;;;;;;15.93;4.18;;;;;;;;;;5021704;28;20100;-60
2024/01/16 13:12:19;;;;;;;14.00;3.90;;;;;;;;;;5022358;28;20024;-59
2024/01/16 13:14:44;;;;;;;15.35;4.40;;;;;;;;;;5022103;28;20064;-59
2024/01/16 13:17:10;;;;;;;15.48;3.97;;;;;;;;;;5016995;28;20034;-60
2024/01/16 13:19:36;;;;;;;15.30;4.03;;;;;;;;;;5012413;28;20045;-60
2024/01/16 13:22:01;;;;;;;15.75;3.85;;;;;;;;;;5016944;28;20393;-58
2024/01/16 13:24:26;;;;;;;13.95;3.80;;;;;;;;;;5020582;28;20018;-60
2024/01/16 13:26:51;;;;;;;14.38;3.80;;;;;;;;;;5018719;28;20018;-59
2024/01/16 13:29:17;;;;;;;14.93;4.20;;;;;;;;;;5010435;28;20112;-61
2024/01/16 13:31:43;;;;;;;16.90;4.15;;;;;;;;;;5010445;28;20503;-60
2024/01/16 13:34:08;;;;;;;15.88;3.72;;;;;;;;;;5010356;28;20049;-60
2024/01/16 13:36:33;;;;;;;14.80;3.78;;;;;;;;;;5010903;28;20025;-60
2024/01/16 13:38:59;;;;;;;16.63;4.03;;;;;;;;;;5011881;28;20430;-60
2024/01/16 13:41:24;;;;;;;15.33;4.23;;;;;;;;;;5014487;28;20369;-61
2024/01/16 13:43:50;;;;;;;15.48;3.88;;;;;;;;;;5014513;28;20356;-60
2024/01/16 13:46:17;;;;;;;13.75;3.92;;;;;;;;;;5010795;28;20028;-60
2024/01/16 13:48:42;;;;;;;12.48;3.60;;;;;;;;;;5015527;28;20125;-60
2024/01/16 13:51:08;;;;;;;14.40;3.50;;;;;;;;;;5015235;28;20032;-60
2024/01/16 13:53:34;;;;;;;14.13;3.50;;;;;;;;;;5012910;28;20084;-60
2024/01/16 13:56:00;;;;;;;16.73;4.05;;;;;;;;;;5014978;28;20084;-58
2024/01/16 13:58:25;;;;;;;14.73;3.88;;;;;;;;;;5012965;28;20010;-60
2024/01/16 14:00:51;;;;;;;13.82;3.92;;;;;;;;;;5014362;28;20032;-60
2024/01/16 14:03:17;;;;;;;16.08;3.83;;;;;;;;;;5012180;28;20025;-59
2024/01/16 14:05:43;;;;;;;15.77;3.97;;;;;;;;;;5012399;28;20075;-60
2024/01/16 14:08:11;;;;;;;15.15;4.10;;;;;;;;;;5011236;28;20896;-59
2024/01/16 14:10:36;;;;;;;17.92;4.35;;;;;;;;;;5013137;28;20021;-60
2024/01/16 14:13:01;;;;;;;16.67;3.90;;;;;;;;;;5013939;28;20044;-59
2024/01/16 14:15:26;;;;;;;14.82;3.72;;;;;;;;;;5011438;28;20348;-59
2024/01/16 14:17:54;;;;;;;15.65;4.07;;;;;;;;;;5012770;28;20021;-60
2024/01/16 14:20:23;;;;;;;14.88;4.43;;;;;;;;;;5011968;28;20044;-60
2024/01/16 14:22:49;;;;;;;14.35;3.65;;;;;;;;;;5012843;28;20111;-60
2024/01/16 14:25:18;;;;;;;13.25;3.53;;;;;;;;;;5015067;28;20021;-59